Time;durP1;ratioP1;P1;durP2;ratioP2;P2;SDS_P1;SDS_P2;PMS_P1;PMS_P2;Temp;Humidity;BMP_temperature;BMP_pressure;BME280_temperature;BME280_humidity;BME280_pressure;Samples;Min_cycle;Max_cycle;Signal;HPM_P1;HPM_P2
2021/10/13 00:00:03;;;;;;;10.63;7.63;;;;;;;16.87;48.03;95029.16;5088876;28;20482;-73
2021/10/13 00:02:28;;;;;;;10.57;7.55;;;;;;;16.87;48.00;95029.97;5088291;28;20061;-72
2021/10/13 00:04:55;;;;;;;12.63;8.38;;;;;;;16.89;48.01;95036.00;5070903;28;20032;-73
2021/10/13 00:07:20;;;;;;;9.68;6.97;;;;;;;16.89;47.92;95025.19;5088149;28;20035;-73
2021/10/13 00:09:46;;;;;;;10.25;7.60;;;;;;;16.89;47.77;95022.47;5070673;28;20024;-73
2021/10/13 00:12:11;;;;;;;10.30;7.35;;;;;;;16.90;47.91;95023.28;5069690;28;20047;-73
2021/10/13 00:14:36;;;;;;;9.93;7.45;;;;;;;16.88;47.77;95020.78;5088382;28;20028;-72
2021/10/13 00:17:03;;;;;;;9.50;7.50;;;;;;;16.87;47.96;95016.44;5086871;28;20048;-73
2021/10/13 00:19:29;;;;;;;10.98;7.65;;;;;;;16.86;47.90;95019.38;5086966;28;20027;-73
2021/10/13 00:21:54;;;;;;;10.75;7.60;;;;;;;16.85;47.82;95013.13;5070601;28;20020;-73
2021/10/13 00:24:20;;;;;;;10.60;7.90;;;;;;;16.85;47.86;95010.41;5087889;28;20402;-73
2021/10/13 00:26:45;;;;;;;11.40;8.20;;;;;;;16.86;47.86;95014.75;5087151;28;20428;-73
2021/10/13 00:29:11;;;;;;;9.15;6.97;;;;;;;16.84;47.91;95011.47;5069431;28;20094;-73
2021/10/13 00:31:36;;;;;;;10.18;7.50;;;;;;;16.85;47.91;95004.16;5086785;28;20035;-73
2021/10/13 00:34:02;;;;;;;9.48;6.80;;;;;;;16.85;47.79;94996.88;5069397;28;20036;-73
2021/10/13 00:36:27;;;;;;;9.30;7.53;;;;;;;16.84;47.96;94988.97;5086451;28;20023;-73
2021/10/13 00:38:52;;;;;;;9.40;6.70;;;;;;;16.83;47.85;94990.84;5086147;28;20028;-73
2021/10/13 00:41:18;;;;;;;9.10;6.28;;;;;;;16.84;47.89;94984.41;5086540;28;20043;-73
2021/10/13 00:43:43;;;;;;;8.77;6.68;;;;;;;16.83;47.70;94992.75;5069989;28;20039;-73
2021/10/13 00:46:09;;;;;;;10.48;7.55;;;;;;;16.84;47.63;94984.41;5069209;28;20142;-73
2021/10/13 00:48:34;;;;;;;10.13;7.60;;;;;;;16.85;47.53;94987.91;5052906;28;20119;-73
2021/10/13 00:51:00;;;;;;;10.40;7.47;;;;;;;16.86;47.84;94981.47;5084259;28;20061;-73
2021/10/13 00:53:25;;;;;;;8.80;6.97;;;;;;;16.85;47.92;94986.03;5086381;28;20089;-72
2021/10/13 00:55:52;;;;;;;9.43;6.80;;;;;;;16.84;47.56;94975.44;5067461;28;20038;-73
2021/10/13 00:58:18;;;;;;;10.00;7.15;;;;;;;16.83;47.91;94977.31;5069493;28;20020;-73
2021/10/13 01:00:44;;;;;;;10.85;7.93;;;;;;;16.84;47.69;94978.16;5086336;28;20035;-73
2021/10/13 01:03:36;;;;;;;8.27;6.85;;;;;;;16.84;47.55;94978.16;5068999;28;20028;-73
2021/10/13 01:06:18;;;;;;;9.55;7.20;;;;;;;16.83;47.75;94977.31;5063833;28;20068;-73
2021/10/13 01:09:02;;;;;;;10.85;6.90;;;;;;;16.83;47.72;94971.88;5085686;28;20066;-73
2021/10/13 01:11:31;;;;;;;9.65;6.93;;;;;;;16.83;47.84;94977.31;5085509;28;20139;-73
2021/10/13 01:14:05;;;;;;;9.30;7.25;;;;;;;16.83;47.74;94979.22;5087646;28;20491;-72
2021/10/13 01:16:46;;;;;;;9.73;6.90;;;;;;;16.84;47.49;94981.69;5086761;28;20031;-73
2021/10/13 01:19:19;;;;;;;11.10;7.55;;;;;;;16.84;47.43;94972.72;5086167;28;20020;-72
2021/10/13 01:22:19;;;;;;;10.07;7.43;;;;;;;16.85;47.66;94974.38;5069317;28;20109;-73
2021/10/13 01:24:50;;;;;;;9.07;6.97;;;;;;;16.87;47.54;94989.34;5070268;28;20020;-72
2021/10/13 01:27:38;;;;;;;9.65;7.00;;;;;;;16.85;47.49;94980.63;5086281;28;20051;-73
2021/10/13 01:30:04;;;;;;;10.95;7.70;;;;;;;16.87;47.45;94983.94;5068837;28;20036;-73
2021/10/13 01:32:29;;;;;;;9.23;6.80;;;;;;;16.87;47.60;94983.94;5068907;28;20123;-72
2021/10/13 01:34:57;;;;;;;10.25;7.50;;;;;;;16.86;47.67;94982.25;5068345;28;20031;-73
2021/10/13 01:37:26;;;;;;;10.18;7.55;;;;;;;16.86;47.46;94976.03;5068654;28;20024;-73
2021/10/13 01:39:53;;;;;;;8.73;6.78;;;;;;;16.84;47.41;94978.97;5052636;28;20498;-73
2021/10/13 01:42:18;;;;;;;9.57;7.45;;;;;;;16.85;47.57;94987.91;5086368;28;20024;-73
2021/10/13 01:44:54;;;;;;;9.85;6.93;;;;;;;16.83;47.49;94980.00;5068854;28;20069;-73
2021/10/13 01:47:22;;;;;;;10.30;7.53;;;;;;;16.83;47.67;94977.31;5068258;28;20027;-73
2021/10/13 01:49:48;;;;;;;10.32;7.20;;;;;;;16.84;47.41;94981.69;5068791;28;20024;-73
2021/10/13 01:52:13;;;;;;;9.23;7.22;;;;;;;16.84;47.66;94984.41;5068537;28;20472;-73
2021/10/13 01:54:39;;;;;;;9.70;7.38;;;;;;;16.84;47.45;94984.41;5068143;28;20436;-73
2021/10/13 01:57:04;;;;;;;9.70;6.93;;;;;;;16.84;47.40;94978.97;5068202;28;20020;-73
2021/10/13 01:59:30;;;;;;;9.15;7.00;;;;;;;16.83;47.56;94977.31;5068029;28;20070;-72
2021/10/13 02:01:55;;;;;;;10.35;7.55;;;;;;;16.84;47.42;94984.41;5068758;28;20020;-72
2021/10/13 02:04:21;;;;;;;9.55;7.50;;;;;;;16.83;47.50;94980.00;5067878;28;20085;-72
2021/10/13 02:06:48;;;;;;;10.82;7.63;;;;;;;16.84;47.25;94986.28;5068490;28;20028;-72
2021/10/13 02:09:14;;;;;;;9.85;7.50;;;;;;;16.85;47.54;94987.91;5068106;28;20066;-72
2021/10/13 02:11:40;;;;;;;9.63;7.22;;;;;;;16.86;47.17;95000.41;5068158;28;20595;-72
2021/10/13 02:14:08;;;;;;;9.60;6.90;;;;;;;16.84;47.43;94999.81;5068250;28;20470;-72
2021/10/13 02:16:33;;;;;;;9.50;7.10;;;;;;;16.84;47.44;94994.38;5068123;28;20024;-72
2021/10/13 02:19:03;;;;;;;11.38;7.50;;;;;;;16.84;47.43;95002.50;5051637;28;20039;-72
2021/10/13 02:21:29;;;;;;;9.52;7.47;;;;;;;16.83;47.37;94998.16;5067773;28;20484;-72
2021/10/13 02:23:58;;;;;;;10.25;7.38;;;;;;;16.82;47.38;95000.03;5068274;28;20490;-72
2021/10/13 02:26:31;;;;;;;9.65;7.30;;;;;;;16.84;47.28;94994.38;5068081;28;20048;-72
2021/10/13 02:29:01;;;;;;;9.90;7.35;;;;;;;16.82;47.35;94986.50;5068915;28;20483;-73
2021/10/13 02:31:26;;;;;;;9.52;7.18;;;;;;;16.81;47.41;94992.97;5068708;28;20081;-72
2021/10/13 02:33:52;;;;;;;10.25;7.90;;;;;;;16.81;47.36;94991.06;5067456;28;20020;-72
2021/10/13 02:36:17;;;;;;;9.20;7.25;;;;;;;16.82;47.30;94986.50;5085099;28;20016;-73
2021/10/13 02:38:43;;;;;;;9.63;7.57;;;;;;;16.82;47.38;94997.31;5084393;28;20070;-72
2021/10/13 02:41:08;;;;;;;10.10;7.53;;;;;;;16.84;47.15;94987.09;5067988;28;20031;-73
2021/10/13 02:43:35;;;;;;;9.32;7.55;;;;;;;16.86;47.33;94998.50;5086017;28;20035;-72
2021/10/13 02:46:16;;;;;;;10.07;7.65;;;;;;;16.87;47.33;95002.06;5051165;28;20031;-72
2021/10/13 02:48:41;;;;;;;10.98;7.60;;;;;;;16.88;47.21;95001.03;5069226;28;20020;-72
2021/10/13 02:51:11;;;;;;;9.93;7.63;;;;;;;16.87;47.37;95008.31;5067154;28;20039;-73
2021/10/13 02:53:43;;;;;;;10.15;7.15;;;;;;;16.87;47.26;95011.03;5068682;28;20032;-73
2021/10/13 02:56:22;;;;;;;10.40;7.97;;;;;;;16.87;47.05;95012.91;5085126;28;20111;-72
2021/10/13 02:59:03;;;;;;;10.82;8.32;;;;;;;16.84;47.19;95014.19;5052799;28;20113;-73
2021/10/13 03:01:31;;;;;;;10.70;7.80;;;;;;;16.82;47.49;95019.00;5086071;28;20039;-73
2021/10/13 03:04:02;;;;;;;11.32;8.13;;;;;;;16.83;47.24;95022.53;5084251;28;20047;-72
2021/10/13 03:06:29;;;;;;;9.82;7.38;;;;;;;16.82;47.12;95029.81;5068327;28;20034;-73
2021/10/13 03:08:54;;;;;;;9.45;7.82;;;;;;;16.81;47.37;95026.28;5070129;28;20020;-73
2021/10/13 03:11:21;;;;;;;10.95;8.50;;;;;;;16.81;47.26;95023.56;5054738;28;20020;-72
2021/10/13 03:13:48;;;;;;;11.55;8.00;;;;;;;16.81;46.96;95030.88;5071190;28;20016;-72
2021/10/13 03:16:14;;;;;;;11.32;8.18;;;;;;;16.81;47.17;95037.13;5071452;28;20032;-73
2021/10/13 03:18:40;;;;;;;10.05;7.50;;;;;;;16.81;47.11;95041.72;5088092;28;20530;-73
2021/10/13 03:21:05;;;;;;;10.18;7.53;;;;;;;16.81;47.13;95042.53;5071290;28;20048;-72
2021/10/13 03:23:30;;;;;;;11.15;8.10;;;;;;;16.81;47.21;95039.81;5088416;28;20020;-72
2021/10/13 03:26:06;;;;;;;10.50;7.53;;;;;;;16.81;47.20;95039.00;5087588;28;20398;-72
2021/10/13 03:28:33;;;;;;;11.07;7.95;;;;;;;16.81;47.23;95047.13;5071424;28;20579;-72
2021/10/13 03:30:58;;;;;;;13.55;8.65;;;;;;;16.80;47.08;95045.47;5070776;28;20115;-72
2021/10/13 03:33:24;;;;;;;10.10;7.68;;;;;;;16.81;47.00;95044.44;5087800;28;20024;-72
2021/10/13 03:35:49;;;;;;;10.77;8.13;;;;;;;16.80;47.01;95040.88;5087411;28;20414;-72
2021/10/13 03:38:15;;;;;;;10.73;8.10;;;;;;;16.80;47.15;95045.47;5088849;28;20437;-72
2021/10/13 03:40:40;;;;;;;10.27;8.00;;;;;;;16.80;46.98;95049.00;5071234;28;20020;-72
2021/10/13 03:43:08;;;;;;;9.90;7.90;;;;;;;16.80;47.10;95043.59;5053666;28;20035;-72
2021/10/13 03:45:33;;;;;;;10.52;8.02;;;;;;;16.80;47.09;95042.75;5088244;28;20107;-73
2021/10/13 03:47:59;;;;;;;10.30;8.27;;;;;;;16.80;47.11;95045.47;5070242;28;20028;-72
2021/10/13 03:50:24;;;;;;;12.52;8.68;;;;;;;16.77;46.95;95043.22;5070543;28;20024;-73
2021/10/13 03:52:50;;;;;;;10.77;8.05;;;;;;;16.78;46.98;95036.75;5087118;28;20031;-72
2021/10/13 03:55:16;;;;;;;9.65;7.97;;;;;;;16.78;46.91;95039.47;5087433;28;20498;-73
2021/10/13 03:57:42;;;;;;;10.57;7.82;;;;;;;16.78;46.91;95053.00;5070453;28;20141;-73
2021/10/13 04:00:13;;;;;;;10.60;8.40;;;;;;;16.79;47.10;95052.78;5070327;28;20498;-73
2021/10/13 04:02:39;;;;;;;13.07;9.10;;;;;;;16.80;47.07;95061.72;5087887;28;20953;-73
2021/10/13 04:05:05;;;;;;;11.02;8.40;;;;;;;16.79;47.01;95062.78;5086830;28;20039;-72
2021/10/13 04:07:32;;;;;;;10.32;7.88;;;;;;;16.80;46.81;95057.13;5088783;28;20040;-72
2021/10/13 04:09:58;;;;;;;10.85;8.30;;;;;;;16.82;46.71;95065.03;5053198;28;20040;-72
2021/10/13 04:12:23;;;;;;;11.43;8.85;;;;;;;16.80;46.87;95064.41;5081568;28;20048;-72
2021/10/13 04:14:49;;;;;;;12.27;8.38;;;;;;;16.79;46.86;95058.19;5086774;28;20518;-73
2021/10/13 04:17:15;;;;;;;13.20;8.82;;;;;;;16.81;46.90;95066.09;5088354;28;20024;-73
2021/10/13 04:19:40;;;;;;;10.95;8.57;;;;;;;16.79;46.79;95060.06;5069803;28;20494;-73
2021/10/13 04:22:06;;;;;;;11.88;8.40;;;;;;;16.80;46.82;95065.25;5080730;28;20027;-72
2021/10/13 04:24:31;;;;;;;11.43;8.48;;;;;;;16.79;46.83;95070.91;5087039;28;20519;-73
2021/10/13 04:26:57;;;;;;;9.88;7.95;;;;;;;16.77;46.74;95067.59;5084728;28;20016;-73
2021/10/13 04:29:22;;;;;;;12.90;8.35;;;;;;;16.77;46.81;95068.41;5084366;28;20043;-73
2021/10/13 04:31:48;;;;;;;10.63;8.40;;;;;;;16.76;46.76;95074.06;5065136;28;20099;-72
2021/10/13 04:34:13;;;;;;;11.23;8.23;;;;;;;16.76;46.79;95066.78;5083909;28;20025;-72
2021/10/13 04:36:39;;;;;;;10.82;8.20;;;;;;;16.76;46.82;95064.06;5066696;28;20040;-72
2021/10/13 04:39:04;;;;;;;12.40;9.73;;;;;;;16.75;46.64;95067.00;5066729;28;20053;-72
2021/10/13 04:41:29;;;;;;;14.63;11.43;;;;;;;16.75;46.67;95073.22;5066562;28;20028;-72
2021/10/13 04:43:55;;;;;;;16.75;13.07;;;;;;;16.76;46.73;95079.47;5066202;28;20032;-72
2021/10/13 04:46:20;;;;;;;18.90;12.70;;;;;;;16.75;46.46;95083.25;5067389;28;20131;-72
2021/10/13 04:48:46;;;;;;;21.08;13.50;;;;;;;16.76;46.45;95087.59;5080657;28;20031;-72
2021/10/13 04:51:11;;;;;;;18.48;14.38;;;;;;;16.74;46.66;95093.25;5083036;28;20023;-73
2021/10/13 04:53:37;;;;;;;22.98;14.52;;;;;;;16.75;46.99;95097.59;5085053;28;20058;-75
2021/10/13 04:56:02;;;;;;;20.60;14.20;;;;;;;16.77;46.77;95098.22;5086243;28;20055;-75
2021/10/13 04:58:28;;;;;;;19.92;14.10;;;;;;;16.77;47.03;95098.22;5057521;28;20025;-75
2021/10/13 05:00:54;;;;;;;20.27;13.80;;;;;;;16.80;46.96;95105.03;5048950;28;20111;-75
2021/10/13 05:03:20;;;;;;;20.20;14.32;;;;;;;16.81;46.96;95104.81;5069333;28;20074;-75
2021/10/13 05:05:45;;;;;;;21.27;14.07;;;;;;;16.83;47.00;95111.91;5068422;28;20028;-75
2021/10/13 05:08:11;;;;;;;19.42;13.82;;;;;;;16.84;46.94;95114.38;5088015;28;20020;-75
2021/10/13 05:10:37;;;;;;;19.13;13.20;;;;;;;16.84;46.92;95111.69;5068542;28;20226;-75
2021/10/13 05:13:03;;;;;;;21.73;14.43;;;;;;;16.84;46.79;95114.38;5084664;28;20050;-75
2021/10/13 05:15:28;;;;;;;27.38;13.57;;;;;;;16.85;46.84;95124.16;5085638;28;20028;-75
2021/10/13 05:17:54;;;;;;;20.08;13.32;;;;;;;16.84;46.85;95121.69;5051875;28;20117;-75
2021/10/13 05:20:19;;;;;;;20.10;13.18;;;;;;;16.86;46.78;95127.72;5086377;28;20537;-75
2021/10/13 05:22:44;;;;;;;19.13;13.10;;;;;;;16.86;46.83;95127.72;5068142;28;20164;-75
2021/10/13 05:25:10;;;;;;;19.92;13.65;;;;;;;16.88;46.71;95136.44;5069381;28;20069;-75
2021/10/13 05:27:35;;;;;;;20.30;13.65;;;;;;;16.89;46.82;95133.50;5068445;28;20441;-75
2021/10/13 05:30:01;;;;;;;19.98;13.45;;;;;;;16.90;46.52;95135.16;5084851;28;20039;-75
2021/10/13 05:32:27;;;;;;;20.10;12.65;;;;;;;16.91;46.46;95139.50;5068536;28;20031;-75
2021/10/13 05:34:52;;;;;;;19.02;12.90;;;;;;;16.95;46.52;95137.19;5068516;28;20039;-75
2021/10/13 05:37:17;;;;;;;18.63;12.60;;;;;;;16.98;46.30;95135.91;5085522;28;20028;-75
2021/10/13 05:39:43;;;;;;;17.42;12.63;;;;;;;16.98;46.51;95138.59;5086596;28;20085;-75
2021/10/13 05:42:08;;;;;;;18.63;12.13;;;;;;;16.99;46.44;95143.81;5068948;28;20081;-75
2021/10/13 05:44:34;;;;;;;16.95;12.50;;;;;;;17.03;46.35;95146.91;5068076;28;20024;-75
2021/10/13 05:46:59;;;;;;;18.17;12.02;;;;;;;17.01;46.22;95151.69;5085525;28;20391;-75
2021/10/13 05:49:25;;;;;;;19.25;11.98;;;;;;;17.01;46.28;95154.41;5086294;28;20517;-75
2021/10/13 05:51:50;;;;;;;17.17;12.13;;;;;;;17.03;46.24;95149.59;5086592;28;20043;-75
2021/10/13 05:54:16;;;;;;;18.98;12.00;;;;;;;17.03;46.18;95155.88;5085126;28;20110;-75
2021/10/13 05:56:41;;;;;;;16.95;11.73;;;;;;;17.04;46.14;95156.66;5085243;28;20017;-75
2021/10/13 05:59:07;;;;;;;17.20;12.13;;;;;;;17.06;46.13;95154.56;5085429;28;20082;-75
2021/10/13 06:01:32;;;;;;;17.73;12.07;;;;;;;17.05;46.06;95159.19;5086183;28;20028;-75
2021/10/13 06:03:58;;;;;;;16.73;11.90;;;;;;;17.07;45.87;95164.38;5086850;28;20027;-75
2021/10/13 06:06:23;;;;;;;17.83;11.65;;;;;;;17.08;46.07;95168.75;5085793;28;20024;-75
2021/10/13 06:08:48;;;;;;;16.95;11.75;;;;;;;17.08;45.88;95168.75;5086482;28;20024;-75
2021/10/13 06:11:14;;;;;;;16.20;11.40;;;;;;;17.11;45.95;95168.31;5084401;28;20031;-75
2021/10/13 06:13:40;;;;;;;15.85;11.00;;;;;;;17.14;45.74;95169.72;5086167;28;20484;-75
2021/10/13 06:16:07;;;;;;;17.10;11.20;;;;;;;17.16;45.96;95156.78;5084828;28;20036;-75
2021/10/13 06:18:34;;;;;;;16.23;11.20;;;;;;;17.18;45.91;95169.06;5085991;28;20024;-75
2021/10/13 06:20:59;;;;;;;16.38;11.35;;;;;;;17.23;46.03;95172.97;5085340;28;20026;-75
2021/10/13 06:23:25;;;;;;;15.65;10.77;;;;;;;17.26;45.60;95175.25;5085622;28;20024;-75
2021/10/13 06:25:50;;;;;;;15.85;11.35;;;;;;;17.28;45.46;95179.38;5086405;28;20036;-74
2021/10/13 06:28:16;;;;;;;17.27;11.38;;;;;;;17.30;45.33;95187.28;5085525;28;20016;-75
2021/10/13 06:30:42;;;;;;;17.25;10.82;;;;;;;17.34;45.25;95182.25;5084990;28;20452;-74
2021/10/13 06:33:08;;;;;;;16.45;11.27;;;;;;;17.38;45.32;95184.25;5085871;28;20016;-75
2021/10/13 06:35:34;;;;;;;16.73;10.90;;;;;;;17.44;44.54;95181.72;5084788;28;20031;-75
2021/10/13 06:37:59;;;;;;;15.48;10.35;;;;;;;17.50;44.46;95176.22;5085249;28;20032;-75
2021/10/13 06:40:25;;;;;;;15.13;10.25;;;;;;;17.56;44.36;95179.88;5085465;28;20476;-75
2021/10/13 06:42:50;;;;;;;12.90;10.18;;;;;;;17.61;44.21;95185.47;5089629;28;20028;-75
2021/10/13 06:45:15;;;;;;;17.30;11.02;;;;;;;17.68;44.11;95182.66;5089454;28;20031;-75
2021/10/13 06:47:41;;;;;;;13.63;10.10;;;;;;;17.72;44.22;95186.56;5067494;28;20111;-75
2021/10/13 06:50:07;;;;;;;14.00;9.95;;;;;;;17.78;44.14;95187.56;5073953;28;20094;-74
2021/10/13 06:52:32;;;;;;;12.70;9.68;;;;;;;17.83;44.06;95186.88;5078016;28;20036;-76
2021/10/13 06:54:58;;;;;;;17.90;10.68;;;;;;;17.85;44.26;95188.28;5084761;28;20020;-75
2021/10/13 06:57:23;;;;;;;16.30;10.85;;;;;;;17.90;43.79;95191.16;5087762;28;20028;-75
2021/10/13 06:59:49;;;;;;;14.80;10.55;;;;;;;17.98;43.31;95181.84;5072147;28;20040;-75
2021/10/13 07:02:14;;;;;;;14.30;9.75;;;;;;;18.04;43.17;95186.34;5087917;28;20020;-75
2021/10/13 07:04:40;;;;;;;37.38;26.42;;;;;;;18.15;42.36;95187.47;5065328;28;20031;-75
2021/10/13 07:07:06;;;;;;;46.80;31.95;;;;;;;18.31;42.21;95177.03;5089480;28;20059;-75
2021/10/13 07:09:31;;;;;;;45.15;31.40;;;;;;;18.55;41.77;95178.97;5090189;28;20028;-75
2021/10/13 07:11:57;;;;;;;45.53;29.73;;;;;;;18.83;41.17;95186.41;5054480;28;20025;-76
2021/10/13 07:14:23;;;;;;;41.22;28.40;;;;;;;19.11;40.83;95189.53;5081875;28;20035;-75
2021/10/13 07:16:48;;;;;;;41.97;30.30;;;;;;;19.65;39.76;95191.22;5071657;28;20024;-75
2021/10/13 07:19:13;;;;;;;36.53;26.60;;;;;;;20.10;38.70;95192.38;5088974;28;20050;-75
2021/10/13 07:21:39;;;;;;;39.00;24.95;;;;;;;20.50;38.04;95185.22;5086745;28;20020;-75
2021/10/13 07:24:04;;;;;;;33.85;24.85;;;;;;;20.91;37.21;95188.84;5070495;28;20505;-76
2021/10/13 07:26:33;;;;;;;32.40;24.40;;;;;;;21.26;36.38;95187.75;5088468;28;20466;-75
2021/10/13 07:28:58;;;;;;;32.95;24.13;;;;;;;21.59;35.57;95194.19;5089354;28;20107;-76
2021/10/13 07:31:24;;;;;;;31.23;23.85;;;;;;;21.92;35.02;95190.78;5087574;28;20372;-75
2021/10/13 07:33:49;;;;;;;32.17;22.67;;;;;;;22.23;34.50;95191.13;5087361;28;20028;-75
2021/10/13 07:36:14;;;;;;;31.08;23.00;;;;;;;22.45;34.04;95192.97;5087436;28;20069;-76
2021/10/13 07:38:41;;;;;;;29.33;21.52;;;;;;;22.59;33.54;95193.34;5088593;28;20059;-76
2021/10/13 07:41:07;;;;;;;26.17;20.25;;;;;;;22.62;33.41;95189.31;5051988;28;20119;-76
2021/10/13 07:43:33;;;;;;;28.17;20.45;;;;;;;22.43;33.91;95182.28;5071401;28;20532;-76
2021/10/13 07:45:58;;;;;;;23.85;18.90;;;;;;;22.07;34.13;95180.00;5087261;28;20118;-75
2021/10/13 07:48:25;;;;;;;25.02;19.63;;;;;;;21.79;34.94;95187.38;5071084;28;20460;-76
2021/10/13 07:50:55;;;;;;;25.23;18.90;;;;;;;21.67;35.03;95187.44;5069069;28;20036;-76
2021/10/13 07:53:21;;;;;;;27.45;18.35;;;;;;;22.08;34.35;95184.41;5069483;28;20036;-75
2021/10/13 07:55:46;;;;;;;26.23;19.95;;;;;;;22.76;33.30;95193.28;5065562;28;20050;-75
2021/10/13 07:58:12;;;;;;;24.60;18.30;;;;;;;23.28;32.14;95193.63;5080857;28;20055;-75
2021/10/13 08:00:37;;;;;;;22.63;16.92;;;;;;;23.46;31.83;95195.13;5083223;28;20020;-77
2021/10/13 08:03:03;;;;;;;21.55;17.58;;;;;;;22.52;33.43;95203.69;5069382;28;20027;-75
2021/10/13 08:05:28;;;;;;;22.85;17.50;;;;;;;22.65;33.39;95199.72;5070428;28;20047;-76
2021/10/13 08:07:54;;;;;;;24.65;16.75;;;;;;;23.06;32.23;95202.78;5080757;28;20020;-76
2021/10/13 08:10:19;;;;;;;22.58;16.67;;;;;;;22.52;33.39;95209.94;5079186;28;20500;-75
2021/10/13 08:12:44;;;;;;;22.70;16.63;;;;;;;21.83;34.24;95207.59;5084640;28;20081;-76
2021/10/13 08:15:10;;;;;;;22.30;16.27;;;;;;;21.41;35.03;95202.69;5084318;28;20032;-75
2021/10/13 08:17:35;;;;;;;23.65;17.13;;;;;;;21.17;35.56;95208.31;5055467;28;20025;-76
2021/10/13 08:20:03;;;;;;;22.85;17.10;;;;;;;21.20;36.02;95205.13;5066480;28;20035;-76
2021/10/13 08:22:29;;;;;;;20.55;15.35;;;;;;;20.95;36.26;95217.28;5067025;28;20031;-75
2021/10/13 08:24:55;;;;;;;21.02;15.38;;;;;;;20.61;37.05;95223.50;5061560;28;20425;-76
2021/10/13 08:27:20;;;;;;;19.27;15.32;;;;;;;20.88;36.61;95212.78;5087046;28;20501;-75
2021/10/13 08:29:46;;;;;;;18.42;14.98;;;;;;;20.86;36.53;95214.13;5086841;28;20410;-76
2021/10/13 08:32:11;;;;;;;18.60;14.70;;;;;;;20.86;36.43;95209.47;5085421;28;20024;-75
2021/10/13 08:34:36;;;;;;;20.38;13.80;;;;;;;21.34;35.64;95214.59;5086631;28;20028;-76
2021/10/13 08:37:02;;;;;;;19.08;14.32;;;;;;;21.59;35.19;95205.09;5069039;28;20020;-76
2021/10/13 08:39:27;;;;;;;18.33;14.40;;;;;;;21.84;34.47;95200.25;5070735;28;20031;-76
2021/10/13 08:41:53;;;;;;;17.92;13.52;;;;;;;22.01;34.63;95193.88;5085070;28;20477;-76
2021/10/13 08:44:18;;;;;;;17.88;13.73;;;;;;;21.46;35.20;95200.81;5087080;28;20020;-76
2021/10/13 08:46:44;;;;;;;18.15;13.75;;;;;;;21.55;35.08;95203.97;5085377;28;20449;-75
2021/10/13 08:49:10;;;;;;;17.73;13.00;;;;;;;21.72;35.05;95206.63;5069999;28;20024;-75
2021/10/13 08:51:36;;;;;;;16.25;13.35;;;;;;;21.46;35.72;95214.47;5068098;28;20047;-76
2021/10/13 08:54:01;;;;;;;17.48;13.02;;;;;;;21.29;35.87;95213.69;5067366;28;20154;-75
2021/10/13 08:56:27;;;;;;;16.02;12.77;;;;;;;21.12;36.26;95212.63;5068600;28;20425;-75
2021/10/13 08:58:52;;;;;;;16.90;12.35;;;;;;;20.98;36.48;95216.78;5085225;28;20032;-75
2021/10/13 09:01:18;;;;;;;17.20;12.63;;;;;;;20.85;36.74;95226.06;5076510;28;20024;-75
2021/10/13 09:03:44;;;;;;;14.98;12.25;;;;;;;20.84;36.53;95222.53;5083731;28;20028;-75
2021/10/13 09:06:20;;;;;;;41.65;32.53;;;;;;;20.60;35.70;95228.13;5065538;28;20043;-77
2021/10/13 09:09:12;;;;;;;36.15;28.02;;;;;;;20.29;35.60;95233.03;5083633;28;20052;-77
2021/10/13 09:11:37;;;;;;;27.65;21.65;;;;;;;20.06;35.94;95236.66;5076344;28;20043;-76
2021/10/13 09:14:05;;;;;;;25.52;18.90;;;;;;;20.12;36.13;95239.25;5086861;28;20036;-77
2021/10/13 09:16:31;;;;;;;22.42;17.55;;;;;;;20.16;35.78;95227.88;5086606;28;20032;-76
2021/10/13 09:18:59;;;;;;;22.33;15.10;;;;;;;20.25;35.41;95220.97;5083914;28;20158;-77
2021/10/13 09:21:48;;;;;;;20.30;14.70;;;;;;;20.42;35.02;95220.19;5065177;28;20083;-77
2021/10/13 09:24:13;;;;;;;19.95;13.73;;;;;;;20.25;35.36;95223.69;5083364;28;20101;-77
2021/10/13 09:26:39;;;;;;;15.48;12.18;;;;;;;20.32;35.10;95227.09;5086724;28;20051;-77
2021/10/13 09:29:06;;;;;;;14.98;12.50;;;;;;;20.43;34.83;95221.81;5062070;28;20029;-77
2021/10/13 09:31:31;;;;;;;15.93;12.10;;;;;;;20.43;34.68;95232.72;5079570;28;20028;-77
2021/10/13 09:33:59;;;;;;;15.73;11.52;;;;;;;20.46;34.71;95229.50;5083175;28;20468;-77
2021/10/13 09:36:52;;;;;;;15.75;12.02;;;;;;;20.36;34.68;95222.81;5085148;28;20027;-77
2021/10/13 09:39:18;;;;;;;13.00;10.48;;;;;;;20.06;34.94;95232.06;5085938;28;20036;-76
2021/10/13 09:42:09;;;;;;;13.43;10.70;;;;;;;19.93;35.28;95230.41;5079861;28;20105;-77
2021/10/13 09:44:39;;;;;;;14.00;10.18;;;;;;;19.92;35.17;95230.66;5086803;28;20031;-77
2021/10/13 09:47:11;;;;;;;14.20;9.90;;;;;;;19.84;35.19;95224.53;5051255;28;20020;-77
2021/10/13 09:49:41;;;;;;;14.40;9.73;;;;;;;19.75;35.23;95223.22;5066819;28;20032;-76
2021/10/13 09:52:12;;;;;;;14.18;9.90;;;;;;;19.64;35.69;95222.19;5064223;28;20081;-77
2021/10/13 09:54:38;;;;;;;14.48;9.23;;;;;;;19.49;35.28;95225.44;5067949;28;20020;-77
2021/10/13 09:57:24;;;;;;;14.88;8.88;;;;;;;19.32;35.66;95220.72;5069072;28;20035;-77
2021/10/13 09:59:59;;;;;;;12.57;8.35;;;;;;;19.18;35.72;95230.19;5051668;28;20082;-77
2021/10/13 10:02:26;;;;;;;10.88;8.10;;;;;;;19.06;35.74;95225.53;5064601;28;20082;-77
2021/10/13 10:04:53;;;;;;;9.95;7.82;;;;;;;18.98;35.98;95225.88;5057398;28;20028;-77
2021/10/13 10:07:19;;;;;;;9.80;7.70;;;;;;;18.92;36.21;95226.81;5081726;28;20475;-77
2021/10/13 10:09:45;;;;;;;11.77;7.97;;;;;;;18.84;35.94;95220.69;5064512;28;20087;-77
2021/10/13 10:12:10;;;;;;;9.85;7.45;;;;;;;18.77;36.34;95219.97;5082740;28;20047;-76
2021/10/13 10:14:36;;;;;;;9.15;7.35;;;;;;;18.72;36.72;95226.09;5085461;28;20487;-76
2021/10/13 10:17:03;;;;;;;10.65;7.60;;;;;;;18.68;36.64;95222.22;5085634;28;20082;-75
2021/10/13 10:19:29;;;;;;;11.43;6.93;;;;;;;18.63;36.64;95224.78;5068680;28;20030;-75
2021/10/13 10:22:12;;;;;;;9.82;6.85;;;;;;;18.58;36.26;95230.09;5048999;28;20103;-76
2021/10/13 10:24:50;;;;;;;11.48;6.60;;;;;;;18.55;37.04;95234.09;5048962;28;20039;-75
2021/10/13 10:27:25;;;;;;;10.05;6.80;;;;;;;18.47;36.51;95229.84;5069001;28;20035;-76
2021/10/13 10:30:14;;;;;;;9.15;6.25;;;;;;;18.38;36.15;95234.75;5085809;28;20360;-76
2021/10/13 10:32:58;;;;;;;8.63;6.00;;;;;;;18.35;36.13;95226.25;5042033;28;20044;-75
2021/10/13 10:35:24;;;;;;;9.88;6.72;;;;;;;18.32;36.66;95232.97;5081705;28;20031;-75
2021/10/13 10:37:51;;;;;;;10.77;6.95;;;;;;;18.31;36.82;95219.63;5051381;28;20035;-75
2021/10/13 10:40:26;;;;;;;10.93;8.38;;;;;;;18.31;36.65;95219.63;5066735;28;20754;-76
2021/10/13 10:43:03;;;;;;;11.45;8.48;;;;;;;18.28;36.55;95218.22;5084997;28;20131;-75
2021/10/13 10:45:47;;;;;;;12.95;8.35;;;;;;;18.25;36.87;95224.13;5084919;28;20032;-75
2021/10/13 10:48:13;;;;;;;15.50;9.93;;;;;;;18.23;36.49;95226.22;5084673;28;20032;-75
2021/10/13 10:50:54;;;;;;;16.40;9.00;;;;;;;18.19;36.58;95220.41;5061140;28;20420;-76
2021/10/13 10:53:28;;;;;;;15.45;9.68;;;;;;;18.16;36.63;95219.00;5070693;28;20035;-76
2021/10/13 10:55:54;;;;;;;13.13;9.30;;;;;;;18.14;36.79;95231.97;5084200;28;20053;-76
2021/10/13 10:58:31;;;;;;;14.20;9.57;;;;;;;18.13;37.00;95232.19;5084695;28;20028;-76
2021/10/13 11:01:10;;;;;;;19.95;9.93;;;;;;;18.10;36.61;95243.47;5084132;28;20035;-76
2021/10/13 11:03:36;;;;;;;15.55;10.35;;;;;;;18.07;36.92;95230.38;5069341;28;20032;-76
2021/10/13 11:06:12;;;;;;;16.23;11.10;;;;;;;18.06;36.97;95234.13;5067477;28;20524;-75
2021/10/13 11:08:54;;;;;;;17.30;11.80;;;;;;;18.02;37.13;95231.06;5085293;28;20506;-75
2021/10/13 11:11:20;;;;;;;24.13;14.45;;;;;;;18.00;37.01;95239.44;5045649;28;20036;-75
2021/10/13 11:13:57;;;;;;;19.73;13.65;;;;;;;17.96;37.03;95227.38;5031952;28;20468;-75
2021/10/13 11:16:22;;;;;;;21.15;13.50;;;;;;;17.95;37.16;95233.88;5051528;28;20024;-75
2021/10/13 11:18:47;;;;;;;20.48;13.45;;;;;;;17.94;36.91;95234.94;5067427;28;20074;-75
2021/10/13 11:21:14;;;;;;;19.13;12.23;;;;;;;17.92;37.03;95218.88;5081562;28;20572;-75
2021/10/13 11:23:39;;;;;;;16.83;11.85;;;;;;;17.92;37.33;95226.19;5068690;28;20032;-75